sensor_id;sensor_type;location;lat;lon;timestamp;temperature;humidity
16999;DHT22;10211;49.476;11.010;2023-08-24T00:00:47;18.80;99.90
16999;DHT22;10211;49.476;11.010;2023-08-24T00:03:18;18.90;99.90
16999;DHT22;10211;49.476;11.010;2023-08-24T00:05:47;18.70;99.90
16999;DHT22;10211;49.476;11.010;2023-08-24T00:08:15;18.70;99.90
16999;DHT22;10211;49.476;11.010;2023-08-24T00:10:44;18.60;99.90
16999;DHT22;10211;49.476;11.010;2023-08-24T00:13:12;18.70;99.90
16999;DHT22;10211;49.476;11.010;2023-08-24T00:15:38;18.70;99.90
16999;DHT22;10211;49.476;11.010;2023-08-24T00:18:06;18.50;99.90
16999;DHT22;10211;49.476;11.010;2023-08-24T00:20:33;18.50;99.90
16999;DHT22;10211;49.476;11.010;2023-08-24T00:23:00;18.60;99.90
16999;DHT22;10211;49.476;11.010;2023-08-24T00:25:29;18.40;99.90
16999;DHT22;10211;49.476;11.010;2023-08-24T00:27:56;18.40;99.90
16999;DHT22;10211;49.476;11.010;2023-08-24T00:30:23;18.20;99.90
16999;DHT22;10211;49.476;11.010;2023-08-24T00:32:50;18.30;99.90
16999;DHT22;10211;49.476;11.010;2023-08-24T00:35:16;18.30;99.90
16999;DHT22;10211;49.476;11.010;2023-08-24T00:37:43;18.30;99.90
16999;DHT22;10211;49.476;11.010;2023-08-24T00:40:10;18.20;99.90
16999;DHT22;10211;49.476;11.010;2023-08-24T00:42:39;18.20;99.90
16999;DHT22;10211;49.476;11.010;2023-08-24T00:45:07;18.20;99.90
16999;DHT22;10211;49.476;11.010;2023-08-24T00:47:35;18.20;99.90
16999;DHT22;10211;49.476;11.010;2023-08-24T00:50:02;18.30;99.90
16999;DHT22;10211;49.476;11.010;2023-08-24T00:52:31;18.10;99.90
16999;DHT22;10211;49.476;11.010;2023-08-24T00:54:58;18.10;99.90
16999;DHT22;10211;49.476;11.010;2023-08-24T00:57:26;18.00;99.90
16999;DHT22;10211;49.476;11.010;2023-08-24T00:59:54;18.00;99.90
16999;DHT22;10211;49.476;11.010;2023-08-24T01:02:21;18.00;99.90
16999;DHT22;10211;49.476;11.010;2023-08-24T01:04:48;18.00;99.90
16999;DHT22;10211;49.476;11.010;2023-08-24T01:07:15;17.90;99.90
16999;DHT22;10211;49.476;11.010;2023-08-24T01:09:43;17.90;99.90
16999;DHT22;10211;49.476;11.010;2023-08-24T01:12:19;17.90;99.90
16999;DHT22;10211;49.476;11.010;2023-08-24T01:14:50;17.80;99.90
16999;DHT22;10211;49.476;11.010;2023-08-24T01:17:22;17.90;99.90
16999;DHT22;10211;49.476;11.010;2023-08-24T01:19:53;17.80;99.90
16999;DHT22;10211;49.476;11.010;2023-08-24T01:22:29;17.80;99.90
16999;DHT22;10211;49.476;11.010;2023-08-24T01:25:04;17.80;99.90
16999;DHT22;10211;49.476;11.010;2023-08-24T01:27:34;17.70;99.90
16999;DHT22;10211;49.476;11.010;2023-08-24T01:30:03;17.60;99.90
16999;DHT22;10211;49.476;11.010;2023-08-24T01:32:30;17.70;99.90
16999;DHT22;10211;49.476;11.010;2023-08-24T01:34:57;17.70;99.90
16999;DHT22;10211;49.476;11.010;2023-08-24T01:37:24;17.60;99.90
16999;DHT22;10211;49.476;11.010;2023-08-24T01:39:56;17.60;99.90
16999;DHT22;10211;49.476;11.010;2023-08-24T01:42:27;17.60;99.90
16999;DHT22;10211;49.476;11.010;2023-08-24T01:44:57;17.50;99.90
16999;DHT22;10211;49.476;11.010;2023-08-24T01:47:27;17.50;99.90
16999;DHT22;10211;49.476;11.010;2023-08-24T01:49:55;17.40;99.90
16999;DHT22;10211;49.476;11.010;2023-08-24T01:52:23;17.40;99.90
16999;DHT22;10211;49.476;11.010;2023-08-24T01:54:50;17.40;99.90
16999;DHT22;10211;49.476;11.010;2023-08-24T01:57:17;17.40;99.90
16999;DHT22;10211;49.476;11.010;2023-08-24T01:59:43;17.40;99.90
16999;DHT22;10211;49.476;11.010;2023-08-24T02:02:12;17.30;99.90
16999;DHT22;10211;49.476;11.010;2023-08-24T02:04:38;17.40;99.90
16999;DHT22;10211;49.476;11.010;2023-08-24T02:07:05;17.30;99.90
16999;DHT22;10211;49.476;11.010;2023-08-24T02:09:32;17.30;99.90
16999;DHT22;10211;49.476;11.010;2023-08-24T02:11:58;17.30;99.90
16999;DHT22;10211;49.476;11.010;2023-08-24T02:14:25;17.30;99.90
16999;DHT22;10211;49.476;11.010;2023-08-24T02:16:52;17.40;99.90
16999;DHT22;10211;49.476;11.010;2023-08-24T02:19:20;17.30;99.90
16999;DHT22;10211;49.476;11.010;2023-08-24T02:21:47;17.20;99.90
16999;DHT22;10211;49.476;11.010;2023-08-24T02:24:14;17.30;99.90
16999;DHT22;10211;49.476;11.010;2023-08-24T02:26:41;17.30;99.90
16999;DHT22;10211;49.476;11.010;2023-08-24T02:29:07;17.20;99.90
16999;DHT22;10211;49.476;11.010;2023-08-24T02:31:34;17.30;99.90
16999;DHT22;10211;49.476;11.010;2023-08-24T02:34:01;17.20;99.90
16999;DHT22;10211;49.476;11.010;2023-08-24T02:36:29;17.20;99.90
16999;DHT22;10211;49.476;11.010;2023-08-24T02:38:58;17.20;99.90
16999;DHT22;10211;49.476;11.010;2023-08-24T02:41:25;17.20;99.90
16999;DHT22;10211;49.476;11.010;2023-08-24T02:43:52;17.10;99.90
16999;DHT22;10211;49.476;11.010;2023-08-24T02:46:20;17.20;99.90
16999;DHT22;10211;49.476;11.010;2023-08-24T02:48:47;17.20;99.90
16999;DHT22;10211;49.476;11.010;2023-08-24T02:51:14;17.20;99.90
16999;DHT22;10211;49.476;11.010;2023-08-24T02:53:42;17.10;99.90
16999;DHT22;10211;49.476;11.010;2023-08-24T02:56:09;17.10;99.90
16999;DHT22;10211;49.476;11.010;2023-08-24T02:58:35;17.10;99.90
16999;DHT22;10211;49.476;11.010;2023-08-24T03:01:04;17.10;99.90
16999;DHT22;10211;49.476;11.010;2023-08-24T03:03:31;17.10;99.90
16999;DHT22;10211;49.476;11.010;2023-08-24T03:06:01;17.30;99.90
16999;DHT22;10211;49.476;11.010;2023-08-24T03:08:30;17.10;99.90
16999;DHT22;10211;49.476;11.010;2023-08-24T03:10:59;17.00;99.90
16999;DHT22;10211;49.476;11.010;2023-08-24T03:13:26;17.00;99.90
16999;DHT22;10211;49.476;11.010;2023-08-24T03:15:53;17.00;99.90
16999;DHT22;10211;49.476;11.010;2023-08-24T03:18:20;16.90;99.90
16999;DHT22;10211;49.476;11.010;2023-08-24T03:20:48;16.90;99.90
16999;DHT22;10211;49.476;11.010;2023-08-24T03:23:15;16.90;99.90
16999;DHT22;10211;49.476;11.010;2023-08-24T03:25:42;16.90;99.90
16999;DHT22;10211;49.476;11.010;2023-08-24T03:28:10;16.80;99.90
16999;DHT22;10211;49.476;11.010;2023-08-24T03:30:39;16.90;99.90
16999;DHT22;10211;49.476;11.010;2023-08-24T03:33:06;16.90;99.90
16999;DHT22;10211;49.476;11.010;2023-08-24T03:35:33;16.80;99.90
16999;DHT22;10211;49.476;11.010;2023-08-24T03:38:00;16.80;99.90
16999;DHT22;10211;49.476;11.010;2023-08-24T03:40:27;16.80;99.90
16999;DHT22;10211;49.476;11.010;2023-08-24T03:42:54;16.80;99.90
16999;DHT22;10211;49.476;11.010;2023-08-24T03:45:22;16.70;99.90
16999;DHT22;10211;49.476;11.010;2023-08-24T03:47:49;16.70;99.90
16999;DHT22;10211;49.476;11.010;2023-08-24T03:50:17;16.70;99.90
16999;DHT22;10211;49.476;11.010;2023-08-24T03:52:44;16.70;99.90
16999;DHT22;10211;49.476;11.010;2023-08-24T03:55:10;16.60;99.90
16999;DHT22;10211;49.476;11.010;2023-08-24T03:57:37;16.60;99.90
16999;DHT22;10211;49.476;11.010;2023-08-24T04:00:05;16.60;99.90
16999;DHT22;10211;49.476;11.010;2023-08-24T04:02:37;16.60;99.90
16999;DHT22;10211;49.476;11.010;2023-08-24T04:05:04;16.60;99.90
16999;DHT22;10211;49.476;11.010;2023-08-24T04:07:31;16.60;99.90
16999;DHT22;10211;49.476;11.010;2023-08-24T04:09:58;16.60;99.90
16999;DHT22;10211;49.476;11.010;2023-08-24T04:12:25;16.60;99.90
16999;DHT22;10211;49.476;11.010;2023-08-24T04:14:52;16.60;99.90
16999;DHT22;10211;49.476;11.010;2023-08-24T04:17:19;16.60;99.90
16999;DHT22;10211;49.476;11.010;2023-08-24T04:19:47;16.60;99.90
16999;DHT22;10211;49.476;11.010;2023-08-24T04:22:14;16.60;99.90
16999;DHT22;10211;49.476;11.010;2023-08-24T04:24:41;16.60;99.90
16999;DHT22;10211;49.476;11.010;2023-08-24T04:27:08;16.60;99.90
16999;DHT22;10211;49.476;11.010;2023-08-24T04:29:34;16.60;99.90
16999;DHT22;10211;49.476;11.010;2023-08-24T04:32:01;16.60;99.90
16999;DHT22;10211;49.476;11.010;2023-08-24T04:34:28;16.60;99.90
16999;DHT22;10211;49.476;11.010;2023-08-24T04:36:56;16.60;99.90
16999;DHT22;10211;49.476;11.010;2023-08-24T04:39:23;16.60;99.90
16999;DHT22;10211;49.476;11.010;2023-08-24T04:41:50;16.60;99.90
16999;DHT22;10211;49.476;11.010;2023-08-24T04:44:17;16.70;99.90
16999;DHT22;10211;49.476;11.010;2023-08-24T04:46:44;16.70;99.90
16999;DHT22;10211;49.476;11.010;2023-08-24T04:49:11;16.70;99.90
16999;DHT22;10211;49.476;11.010;2023-08-24T04:51:37;16.70;99.90
16999;DHT22;10211;49.476;11.010;2023-08-24T04:54:05;16.80;99.90
16999;DHT22;10211;49.476;11.010;2023-08-24T04:56:32;16.80;99.90
16999;DHT22;10211;49.476;11.010;2023-08-24T04:59:00;16.80;99.90
16999;DHT22;10211;49.476;11.010;2023-08-24T05:01:28;16.80;99.90
16999;DHT22;10211;49.476;11.010;2023-08-24T05:03:57;16.80;99.90
16999;DHT22;10211;49.476;11.010;2023-08-24T05:06:24;16.90;99.90
16999;DHT22;10211;49.476;11.010;2023-08-24T05:08:50;16.90;99.90
16999;DHT22;10211;49.476;11.010;2023-08-24T05:11:19;16.90;99.90
16999;DHT22;10211;49.476;11.010;2023-08-24T05:13:47;17.00;99.90
16999;DHT22;10211;49.476;11.010;2023-08-24T05:16:14;17.10;99.90
16999;DHT22;10211;49.476;11.010;2023-08-24T05:18:41;17.20;99.90
16999;DHT22;10211;49.476;11.010;2023-08-24T05:21:07;17.30;99.90
16999;DHT22;10211;49.476;11.010;2023-08-24T05:23:34;17.40;99.90
16999;DHT22;10211;49.476;11.010;2023-08-24T05:26:02;17.50;99.90
16999;DHT22;10211;49.476;11.010;2023-08-24T05:28:32;17.60;99.90
16999;DHT22;10211;49.476;11.010;2023-08-24T05:30:59;17.60;99.90
16999;DHT22;10211;49.476;11.010;2023-08-24T05:33:26;17.80;99.90
16999;DHT22;10211;49.476;11.010;2023-08-24T05:35:56;17.90;99.90
16999;DHT22;10211;49.476;11.010;2023-08-24T05:38:23;18.20;99.90
16999;DHT22;10211;49.476;11.010;2023-08-24T05:40:49;18.40;99.90
16999;DHT22;10211;49.476;11.010;2023-08-24T05:43:16;18.60;99.90
16999;DHT22;10211;49.476;11.010;2023-08-24T05:45:45;18.90;99.90
16999;DHT22;10211;49.476;11.010;2023-08-24T05:48:12;19.10;99.90
16999;DHT22;10211;49.476;11.010;2023-08-24T05:50:43;19.30;99.90
16999;DHT22;10211;49.476;11.010;2023-08-24T05:53:10;19.40;99.90
16999;DHT22;10211;49.476;11.010;2023-08-24T05:55:36;19.60;99.90
16999;DHT22;10211;49.476;11.010;2023-08-24T05:58:03;19.60;99.90
16999;DHT22;10211;49.476;11.010;2023-08-24T06:00:30;19.60;99.90
16999;DHT22;10211;49.476;11.010;2023-08-24T06:02:58;19.50;99.90
16999;DHT22;10211;49.476;11.010;2023-08-24T06:05:25;19.60;99.90
16999;DHT22;10211;49.476;11.010;2023-08-24T06:07:52;19.60;99.90
16999;DHT22;10211;49.476;11.010;2023-08-24T06:10:20;19.60;99.90
16999;DHT22;10211;49.476;11.010;2023-08-24T06:12:46;19.60;99.90
16999;DHT22;10211;49.476;11.010;2023-08-24T06:15:13;19.60;99.90
16999;DHT22;10211;49.476;11.010;2023-08-24T06:17:41;19.70;99.90
16999;DHT22;10211;49.476;11.010;2023-08-24T06:20:11;19.80;99.90
16999;DHT22;10211;49.476;11.010;2023-08-24T06:22:38;19.90;99.90
16999;DHT22;10211;49.476;11.010;2023-08-24T06:25:05;20.00;99.90
16999;DHT22;10211;49.476;11.010;2023-08-24T06:27:34;20.10;99.90
16999;DHT22;10211;49.476;11.010;2023-08-24T06:30:02;20.10;99.90
16999;DHT22;10211;49.476;11.010;2023-08-24T06:32:29;20.10;99.90
16999;DHT22;10211;49.476;11.010;2023-08-24T06:34:56;20.30;99.90
16999;DHT22;10211;49.476;11.010;2023-08-24T06:37:24;20.40;99.90
16999;DHT22;10211;49.476;11.010;2023-08-24T06:39:51;20.50;99.90
16999;DHT22;10211;49.476;11.010;2023-08-24T06:42:17;20.60;99.90
16999;DHT22;10211;49.476;11.010;2023-08-24T06:44:44;20.70;99.90
16999;DHT22;10211;49.476;11.010;2023-08-24T06:47:11;20.80;99.90
16999;DHT22;10211;49.476;11.010;2023-08-24T06:49:38;20.90;99.90
16999;DHT22;10211;49.476;11.010;2023-08-24T06:52:05;21.10;99.90
16999;DHT22;10211;49.476;11.010;2023-08-24T06:54:35;21.40;99.90
16999;DHT22;10211;49.476;11.010;2023-08-24T06:57:01;21.70;99.90
16999;DHT22;10211;49.476;11.010;2023-08-24T06:59:29;22.10;99.90
16999;DHT22;10211;49.476;11.010;2023-08-24T07:01:55;22.30;99.90
16999;DHT22;10211;49.476;11.010;2023-08-24T07:04:23;22.40;99.90
16999;DHT22;10211;49.476;11.010;2023-08-24T07:06:50;22.40;99.90
16999;DHT22;10211;49.476;11.010;2023-08-24T07:09:17;22.30;99.90
16999;DHT22;10211;49.476;11.010;2023-08-24T07:11:45;22.30;99.90
16999;DHT22;10211;49.476;11.010;2023-08-24T07:14:12;22.30;99.90
16999;DHT22;10211;49.476;11.010;2023-08-24T07:16:38;22.30;99.90
16999;DHT22;10211;49.476;11.010;2023-08-24T07:19:05;22.40;99.90
16999;DHT22;10211;49.476;11.010;2023-08-24T07:21:32;22.50;99.90
16999;DHT22;10211;49.476;11.010;2023-08-24T07:23:59;22.40;99.90
16999;DHT22;10211;49.476;11.010;2023-08-24T07:26:27;22.50;99.90
16999;DHT22;10211;49.476;11.010;2023-08-24T07:28:57;22.50;99.90
16999;DHT22;10211;49.476;11.010;2023-08-24T07:31:24;22.70;99.90
16999;DHT22;10211;49.476;11.010;2023-08-24T07:33:50;22.80;99.90
16999;DHT22;10211;49.476;11.010;2023-08-24T07:36:17;23.10;99.90
16999;DHT22;10211;49.476;11.010;2023-08-24T07:38:45;23.20;99.90
16999;DHT22;10211;49.476;11.010;2023-08-24T07:41:12;23.40;99.90
16999;DHT22;10211;49.476;11.010;2023-08-24T07:43:38;23.50;99.90
16999;DHT22;10211;49.476;11.010;2023-08-24T07:46:07;23.60;99.90
16999;DHT22;10211;49.476;11.010;2023-08-24T07:48:34;23.60;99.90
16999;DHT22;10211;49.476;11.010;2023-08-24T07:51:01;23.80;99.90
16999;DHT22;10211;49.476;11.010;2023-08-24T07:53:28;23.90;99.90
16999;DHT22;10211;49.476;11.010;2023-08-24T07:55:56;23.90;99.90
16999;DHT22;10211;49.476;11.010;2023-08-24T07:58:24;23.90;99.90
16999;DHT22;10211;49.476;11.010;2023-08-24T08:00:52;23.70;99.90
16999;DHT22;10211;49.476;11.010;2023-08-24T08:03:23;24.00;99.90
16999;DHT22;10211;49.476;11.010;2023-08-24T08:05:49;23.70;99.90
16999;DHT22;10211;49.476;11.010;2023-08-24T08:08:17;23.50;99.90
16999;DHT22;10211;49.476;11.010;2023-08-24T08:10:44;23.80;99.90
16999;DHT22;10211;49.476;11.010;2023-08-24T08:13:12;24.10;99.90
16999;DHT22;10211;49.476;11.010;2023-08-24T08:15:40;24.70;99.90
16999;DHT22;10211;49.476;11.010;2023-08-24T08:18:06;25.60;99.90
16999;DHT22;10211;49.476;11.010;2023-08-24T08:20:35;26.70;99.90
16999;DHT22;10211;49.476;11.010;2023-08-24T08:23:02;27.30;99.90
16999;DHT22;10211;49.476;11.010;2023-08-24T08:25:29;27.60;99.90
16999;DHT22;10211;49.476;11.010;2023-08-24T08:27:55;27.50;99.90
16999;DHT22;10211;49.476;11.010;2023-08-24T08:30:22;27.90;99.90
16999;DHT22;10211;49.476;11.010;2023-08-24T08:32:49;29.20;99.90
16999;DHT22;10211;49.476;11.010;2023-08-24T08:35:16;31.00;99.90
16999;DHT22;10211;49.476;11.010;2023-08-24T08:37:45;32.50;99.90
16999;DHT22;10211;49.476;11.010;2023-08-24T08:40:12;33.70;99.90
16999;DHT22;10211;49.476;11.010;2023-08-24T08:42:39;34.40;99.90
16999;DHT22;10211;49.476;11.010;2023-08-24T08:45:09;34.30;99.90
16999;DHT22;10211;49.476;11.010;2023-08-24T08:47:36;34.00;99.90
16999;DHT22;10211;49.476;11.010;2023-08-24T08:50:03;33.20;99.90
16999;DHT22;10211;49.476;11.010;2023-08-24T08:52:31;32.40;99.90
16999;DHT22;10211;49.476;11.010;2023-08-24T08:55:00;31.70;99.90
16999;DHT22;10211;49.476;11.010;2023-08-24T08:57:27;31.00;99.90
16999;DHT22;10211;49.476;11.010;2023-08-24T08:59:53;30.30;99.90
16999;DHT22;10211;49.476;11.010;2023-08-24T09:02:21;29.60;99.90
16999;DHT22;10211;49.476;11.010;2023-08-24T09:04:51;29.10;99.90
16999;DHT22;10211;49.476;11.010;2023-08-24T09:07:17;28.60;99.90
16999;DHT22;10211;49.476;11.010;2023-08-24T09:09:46;28.40;99.90
16999;DHT22;10211;49.476;11.010;2023-08-24T09:12:14;28.20;99.90
16999;DHT22;10211;49.476;11.010;2023-08-24T09:14:41;28.20;99.90
16999;DHT22;10211;49.476;11.010;2023-08-24T09:17:08;28.20;99.90
16999;DHT22;10211;49.476;11.010;2023-08-24T09:19:34;28.30;99.90
16999;DHT22;10211;49.476;11.010;2023-08-24T09:22:04;28.50;99.90
16999;DHT22;10211;49.476;11.010;2023-08-24T09:24:31;28.70;99.90
16999;DHT22;10211;49.476;11.010;2023-08-24T09:26:58;28.70;99.90
16999;DHT22;10211;49.476;11.010;2023-08-24T09:29:27;28.60;99.90
16999;DHT22;10211;49.476;11.010;2023-08-24T09:31:54;28.40;99.90
16999;DHT22;10211;49.476;11.010;2023-08-24T09:34:24;28.30;99.90
16999;DHT22;10211;49.476;11.010;2023-08-24T09:36:51;28.50;99.90
16999;DHT22;10211;49.476;11.010;2023-08-24T09:39:18;28.80;99.90
16999;DHT22;10211;49.476;11.010;2023-08-24T09:41:48;28.90;99.90
16999;DHT22;10211;49.476;11.010;2023-08-24T09:44:16;29.00;99.90
16999;DHT22;10211;49.476;11.010;2023-08-24T09:46:45;29.40;99.90
16999;DHT22;10211;49.476;11.010;2023-08-24T09:49:12;29.90;99.90
16999;DHT22;10211;49.476;11.010;2023-08-24T09:51:40;30.70;99.90
16999;DHT22;10211;49.476;11.010;2023-08-24T09:54:08;32.10;99.90
16999;DHT22;10211;49.476;11.010;2023-08-24T09:56:38;34.20;99.90
16999;DHT22;10211;49.476;11.010;2023-08-24T09:59:13;35.90;95.60
16999;DHT22;10211;49.476;11.010;2023-08-24T10:01:45;37.90;90.50
16999;DHT22;10211;49.476;11.010;2023-08-24T10:04:13;39.70;80.40
16999;DHT22;10211;49.476;11.010;2023-08-24T10:06:42;41.20;70.90
16999;DHT22;10211;49.476;11.010;2023-08-24T10:09:17;42.80;64.80
16999;DHT22;10211;49.476;11.010;2023-08-24T10:11:50;44.10;59.60
16999;DHT22;10211;49.476;11.010;2023-08-24T10:14:23;44.60;55.60
16999;DHT22;10211;49.476;11.010;2023-08-24T10:16:55;45.30;56.30
16999;DHT22;10211;49.476;11.010;2023-08-24T10:19:22;45.60;54.10
16999;DHT22;10211;49.476;11.010;2023-08-24T10:21:50;45.90;54.00
16999;DHT22;10211;49.476;11.010;2023-08-24T10:24:18;46.90;52.70
16999;DHT22;10211;49.476;11.010;2023-08-24T10:26:47;47.80;50.80
16999;DHT22;10211;49.476;11.010;2023-08-24T10:29:16;48.40;49.00
16999;DHT22;10211;49.476;11.010;2023-08-24T10:31:43;49.00;47.80
16999;DHT22;10211;49.476;11.010;2023-08-24T10:34:11;49.80;45.50
16999;DHT22;10211;49.476;11.010;2023-08-24T10:36:39;49.60;45.10
16999;DHT22;10211;49.476;11.010;2023-08-24T10:39:06;50.00;45.80
16999;DHT22;10211;49.476;11.010;2023-08-24T10:41:49;50.50;46.10
16999;DHT22;10211;49.476;11.010;2023-08-24T10:44:20;51.00;44.10
16999;DHT22;10211;49.476;11.010;2023-08-24T10:47:12;51.40;44.20
16999;DHT22;10211;49.476;11.010;2023-08-24T10:49:42;52.00;42.10
16999;DHT22;10211;49.476;11.010;2023-08-24T10:52:17;52.00;41.40
16999;DHT22;10211;49.476;11.010;2023-08-24T10:54:46;52.00;41.20
16999;DHT22;10211;49.476;11.010;2023-08-24T10:57:22;52.70;40.70
16999;DHT22;10211;49.476;11.010;2023-08-24T10:59:59;53.10;40.30
16999;DHT22;10211;49.476;11.010;2023-08-24T11:02:26;53.20;40.10
16999;DHT22;10211;49.476;11.010;2023-08-24T11:05:16;53.50;40.60
16999;DHT22;10211;49.476;11.010;2023-08-24T11:07:54;53.80;39.90
16999;DHT22;10211;49.476;11.010;2023-08-24T11:10:23;53.60;39.50
16999;DHT22;10211;49.476;11.010;2023-08-24T11:13:10;53.20;39.80
16999;DHT22;10211;49.476;11.010;2023-08-24T11:15:39;52.70;40.30
16999;DHT22;10211;49.476;11.010;2023-08-24T11:18:14;52.90;40.00
16999;DHT22;10211;49.476;11.010;2023-08-24T11:20:44;53.30;39.70
16999;DHT22;10211;49.476;11.010;2023-08-24T11:23:12;53.80;39.50
16999;DHT22;10211;49.476;11.010;2023-08-24T11:25:39;53.80;39.00
16999;DHT22;10211;49.476;11.010;2023-08-24T11:28:06;53.90;38.60
16999;DHT22;10211;49.476;11.010;2023-08-24T11:30:34;53.70;38.50
16999;DHT22;10211;49.476;11.010;2023-08-24T11:33:01;53.40;38.70
16999;DHT22;10211;49.476;11.010;2023-08-24T11:35:28;52.90;38.80
16999;DHT22;10211;49.476;11.010;2023-08-24T11:37:57;52.20;39.10
16999;DHT22;10211;49.476;11.010;2023-08-24T11:40:24;51.30;40.30
16999;DHT22;10211;49.476;11.010;2023-08-24T11:42:53;51.10;40.20
16999;DHT22;10211;49.476;11.010;2023-08-24T11:45:22;50.90;39.90
16999;DHT22;10211;49.476;11.010;2023-08-24T11:47:49;51.10;39.90
16999;DHT22;10211;49.476;11.010;2023-08-24T11:50:16;51.10;40.00
16999;DHT22;10211;49.476;11.010;2023-08-24T11:52:43;51.20;39.90
16999;DHT22;10211;49.476;11.010;2023-08-24T11:55:14;50.90;39.90
16999;DHT22;10211;49.476;11.010;2023-08-24T11:57:42;50.20;40.40
16999;DHT22;10211;49.476;11.010;2023-08-24T12:00:10;49.70;42.00
16999;DHT22;10211;49.476;11.010;2023-08-24T12:02:39;49.60;42.00
16999;DHT22;10211;49.476;11.010;2023-08-24T12:05:07;49.70;41.70
16999;DHT22;10211;49.476;11.010;2023-08-24T12:07:34;49.50;41.20
16999;DHT22;10211;49.476;11.010;2023-08-24T12:10:01;49.50;41.10
16999;DHT22;10211;49.476;11.010;2023-08-24T12:12:29;49.20;41.30
16999;DHT22;10211;49.476;11.010;2023-08-24T12:14:56;48.30;41.30
16999;DHT22;10211;49.476;11.010;2023-08-24T12:17:24;47.10;41.90
16999;DHT22;10211;49.476;11.010;2023-08-24T12:19:58;46.30;43.50
16999;DHT22;10211;49.476;11.010;2023-08-24T12:22:25;45.70;44.20
16999;DHT22;10211;49.476;11.010;2023-08-24T12:24:52;45.30;44.00
16999;DHT22;10211;49.476;11.010;2023-08-24T12:27:20;44.70;44.00
16999;DHT22;10211;49.476;11.010;2023-08-24T12:29:49;44.60;45.20
16999;DHT22;10211;49.476;11.010;2023-08-24T12:32:16;45.00;46.00
16999;DHT22;10211;49.476;11.010;2023-08-24T12:34:45;45.50;45.40
16999;DHT22;10211;49.476;11.010;2023-08-24T12:37:12;45.50;43.10
16999;DHT22;10211;49.476;11.010;2023-08-24T12:39:40;45.30;44.20
16999;DHT22;10211;49.476;11.010;2023-08-24T12:42:07;44.90;44.40
16999;DHT22;10211;49.476;11.010;2023-08-24T12:44:34;44.30;45.00
16999;DHT22;10211;49.476;11.010;2023-08-24T12:47:03;43.80;46.00
16999;DHT22;10211;49.476;11.010;2023-08-24T12:49:30;43.30;45.40
16999;DHT22;10211;49.476;11.010;2023-08-24T12:51:57;43.00;46.70
16999;DHT22;10211;49.476;11.010;2023-08-24T12:54:24;42.50;45.90
16999;DHT22;10211;49.476;11.010;2023-08-24T12:57:00;42.80;46.50
16999;DHT22;10211;49.476;11.010;2023-08-24T12:59:27;42.80;45.90
16999;DHT22;10211;49.476;11.010;2023-08-24T13:02:14;42.60;46.00
16999;DHT22;10211;49.476;11.010;2023-08-24T13:04:41;42.60;47.60
16999;DHT22;10211;49.476;11.010;2023-08-24T13:07:08;42.60;47.30
16999;DHT22;10211;49.476;11.010;2023-08-24T13:09:35;42.40;46.90
16999;DHT22;10211;49.476;11.010;2023-08-24T13:12:03;41.90;48.20
16999;DHT22;10211;49.476;11.010;2023-08-24T13:14:29;41.70;49.70
16999;DHT22;10211;49.476;11.010;2023-08-24T13:16:56;41.60;49.30
16999;DHT22;10211;49.476;11.010;2023-08-24T13:19:24;41.40;50.00
16999;DHT22;10211;49.476;11.010;2023-08-24T13:21:51;41.30;49.80
16999;DHT22;10211;49.476;11.010;2023-08-24T13:24:18;40.90;49.50
16999;DHT22;10211;49.476;11.010;2023-08-24T13:26:45;40.50;51.10
16999;DHT22;10211;49.476;11.010;2023-08-24T13:29:11;40.00;53.10
16999;DHT22;10211;49.476;11.010;2023-08-24T13:31:38;39.60;53.80
16999;DHT22;10211;49.476;11.010;2023-08-24T13:34:05;39.20;53.50
16999;DHT22;10211;49.476;11.010;2023-08-24T13:36:34;38.50;54.00
16999;DHT22;10211;49.476;11.010;2023-08-24T13:39:01;37.80;56.30
16999;DHT22;10211;49.476;11.010;2023-08-24T13:41:30;37.00;56.20
16999;DHT22;10211;49.476;11.010;2023-08-24T13:43:56;36.50;57.40
16999;DHT22;10211;49.476;11.010;2023-08-24T13:46:24;36.00;59.90
16999;DHT22;10211;49.476;11.010;2023-08-24T13:48:50;35.50;61.50
16999;DHT22;10211;49.476;11.010;2023-08-24T13:51:17;35.10;64.80
16999;DHT22;10211;49.476;11.010;2023-08-24T13:53:46;34.80;64.80
16999;DHT22;10211;49.476;11.010;2023-08-24T13:56:14;34.50;69.30
16999;DHT22;10211;49.476;11.010;2023-08-24T13:58:40;34.40;69.10
16999;DHT22;10211;49.476;11.010;2023-08-24T14:01:07;34.30;71.30
16999;DHT22;10211;49.476;11.010;2023-08-24T14:03:36;34.50;71.50
16999;DHT22;10211;49.476;11.010;2023-08-24T14:06:03;34.40;71.90
16999;DHT22;10211;49.476;11.010;2023-08-24T14:08:29;34.50;68.10
16999;DHT22;10211;49.476;11.010;2023-08-24T14:10:58;34.60;68.00
16999;DHT22;10211;49.476;11.010;2023-08-24T14:13:24;34.70;70.60
16999;DHT22;10211;49.476;11.010;2023-08-24T14:15:51;34.80;68.90
16999;DHT22;10211;49.476;11.010;2023-08-24T14:18:18;35.00;67.80
16999;DHT22;10211;49.476;11.010;2023-08-24T14:20:45;35.00;67.90
16999;DHT22;10211;49.476;11.010;2023-08-24T14:23:12;35.00;65.70
16999;DHT22;10211;49.476;11.010;2023-08-24T14:25:39;34.70;66.90
16999;DHT22;10211;49.476;11.010;2023-08-24T14:28:07;34.50;67.70
16999;DHT22;10211;49.476;11.010;2023-08-24T14:30:34;34.50;69.70
16999;DHT22;10211;49.476;11.010;2023-08-24T14:33:00;34.30;72.10
16999;DHT22;10211;49.476;11.010;2023-08-24T14:35:27;34.30;73.00
16999;DHT22;10211;49.476;11.010;2023-08-24T14:37:54;34.40;71.90
16999;DHT22;10211;49.476;11.010;2023-08-24T14:40:21;34.20;71.90
16999;DHT22;10211;49.476;11.010;2023-08-24T14:42:47;34.30;71.90
16999;DHT22;10211;49.476;11.010;2023-08-24T14:45:16;34.20;71.90
16999;DHT22;10211;49.476;11.010;2023-08-24T14:47:44;34.20;71.60
16999;DHT22;10211;49.476;11.010;2023-08-24T14:50:11;34.20;71.50
16999;DHT22;10211;49.476;11.010;2023-08-24T14:52:38;34.20;72.00
16999;DHT22;10211;49.476;11.010;2023-08-24T14:58:27;34.10;72.60
16999;DHT22;10211;49.476;11.010;2023-08-24T15:01:12;34.00;71.20
16999;DHT22;10211;49.476;11.010;2023-08-24T15:04:14;33.90;71.90
16999;DHT22;10211;49.476;11.010;2023-08-24T15:06:40;33.70;74.50
16999;DHT22;10211;49.476;11.010;2023-08-24T15:09:07;33.50;76.00
16999;DHT22;10211;49.476;11.010;2023-08-24T15:11:34;33.40;78.20
16999;DHT22;10211;49.476;11.010;2023-08-24T15:14:01;33.30;78.10
16999;DHT22;10211;49.476;11.010;2023-08-24T15:16:29;33.30;77.00
16999;DHT22;10211;49.476;11.010;2023-08-24T15:18:55;33.30;74.90
16999;DHT22;10211;49.476;11.010;2023-08-24T15:21:22;33.40;76.10
16999;DHT22;10211;49.476;11.010;2023-08-24T15:23:49;33.40;76.40